sensor_id;sensor_type;location;lat;lon;timestamp;temperature;humidity
71837;DHT22;59686;51.716;7.016;2023-03-13T00:00:53;9.30;88.90
71837;DHT22;59686;51.716;7.016;2023-03-13T00:03:19;9.30;89.00
71837;DHT22;59686;51.716;7.016;2023-03-13T00:05:45;9.30;89.00
71837;DHT22;59686;51.716;7.016;2023-03-13T00:08:11;9.30;89.00
71837;DHT22;59686;51.716;7.016;2023-03-13T00:10:38;9.30;89.00
71837;DHT22;59686;51.716;7.016;2023-03-13T00:13:04;9.30;89.00
71837;DHT22;59686;51.716;7.016;2023-03-13T00:15:30;9.40;89.00
71837;DHT22;59686;51.716;7.016;2023-03-13T00:17:55;9.40;89.10
71837;DHT22;59686;51.716;7.016;2023-03-13T00:20:23;9.40;89.10
71837;DHT22;59686;51.716;7.016;2023-03-13T00:22:49;9.40;89.10
71837;DHT22;59686;51.716;7.016;2023-03-13T00:25:14;9.40;89.40
71837;DHT22;59686;51.716;7.016;2023-03-13T00:27:40;9.30;89.30
71837;DHT22;59686;51.716;7.016;2023-03-13T00:30:06;9.30;89.50
71837;DHT22;59686;51.716;7.016;2023-03-13T00:32:48;9.30;89.50
71837;DHT22;59686;51.716;7.016;2023-03-13T00:35:14;9.30;89.50
71837;DHT22;59686;51.716;7.016;2023-03-13T00:37:40;9.30;89.70
71837;DHT22;59686;51.716;7.016;2023-03-13T00:40:06;9.40;89.80
71837;DHT22;59686;51.716;7.016;2023-03-13T00:42:33;9.40;90.00
71837;DHT22;59686;51.716;7.016;2023-03-13T00:44:59;9.30;89.90
71837;DHT22;59686;51.716;7.016;2023-03-13T00:47:25;9.40;90.00
71837;DHT22;59686;51.716;7.016;2023-03-13T00:49:51;9.40;90.00
71837;DHT22;59686;51.716;7.016;2023-03-13T00:52:16;9.40;90.00
71837;DHT22;59686;51.716;7.016;2023-03-13T00:54:42;9.40;90.10
71837;DHT22;59686;51.716;7.016;2023-03-13T00:57:08;9.30;90.10
71837;DHT22;59686;51.716;7.016;2023-03-13T00:59:34;9.40;90.20
71837;DHT22;59686;51.716;7.016;2023-03-13T01:01:59;9.40;90.10
71837;DHT22;59686;51.716;7.016;2023-03-13T01:04:26;9.40;90.20
71837;DHT22;59686;51.716;7.016;2023-03-13T01:06:52;9.40;90.30
71837;DHT22;59686;51.716;7.016;2023-03-13T01:09:18;9.40;90.40
71837;DHT22;59686;51.716;7.016;2023-03-13T01:11:45;9.40;90.40
71837;DHT22;59686;51.716;7.016;2023-03-13T01:14:14;9.30;90.30
71837;DHT22;59686;51.716;7.016;2023-03-13T01:16:40;9.40;90.40
71837;DHT22;59686;51.716;7.016;2023-03-13T01:19:08;9.40;90.40
71837;DHT22;59686;51.716;7.016;2023-03-13T01:21:34;9.40;90.70
71837;DHT22;59686;51.716;7.016;2023-03-13T01:24:00;9.40;90.50
71837;DHT22;59686;51.716;7.016;2023-03-13T01:26:26;9.40;90.50
71837;DHT22;59686;51.716;7.016;2023-03-13T01:28:53;9.40;90.80
71837;DHT22;59686;51.716;7.016;2023-03-13T01:31:21;9.40;90.60
71837;DHT22;59686;51.716;7.016;2023-03-13T01:33:58;9.40;90.60
71837;DHT22;59686;51.716;7.016;2023-03-13T01:36:25;9.40;90.80
71837;DHT22;59686;51.716;7.016;2023-03-13T01:38:53;9.40;90.60
71837;DHT22;59686;51.716;7.016;2023-03-13T01:41:21;9.40;90.70
71837;DHT22;59686;51.716;7.016;2023-03-13T01:43:48;9.50;90.80
71837;DHT22;59686;51.716;7.016;2023-03-13T01:48:51;9.40;91.00
71837;DHT22;59686;51.716;7.016;2023-03-13T01:53:52;9.40;91.20
71837;DHT22;59686;51.716;7.016;2023-03-13T01:56:43;9.40;91.20
71837;DHT22;59686;51.716;7.016;2023-03-13T01:59:13;9.40;91.20
71837;DHT22;59686;51.716;7.016;2023-03-13T02:01:41;9.40;91.30
71837;DHT22;59686;51.716;7.016;2023-03-13T02:04:09;9.40;91.40
71837;DHT22;59686;51.716;7.016;2023-03-13T02:06:36;9.40;91.40
71837;DHT22;59686;51.716;7.016;2023-03-13T02:09:07;9.40;91.50
71837;DHT22;59686;51.716;7.016;2023-03-13T02:14:13;9.40;91.50
71837;DHT22;59686;51.716;7.016;2023-03-13T02:16:40;9.40;91.60
71837;DHT22;59686;51.716;7.016;2023-03-13T02:19:16;9.40;91.50
71837;DHT22;59686;51.716;7.016;2023-03-13T02:21:58;9.40;91.60
71837;DHT22;59686;51.716;7.016;2023-03-13T02:26:56;9.30;91.70
71837;DHT22;59686;51.716;7.016;2023-03-13T02:29:22;9.40;91.80
71837;DHT22;59686;51.716;7.016;2023-03-13T02:31:49;9.50;91.80
71837;DHT22;59686;51.716;7.016;2023-03-13T02:34:19;9.40;91.80
71837;DHT22;59686;51.716;7.016;2023-03-13T02:36:46;9.50;91.90
71837;DHT22;59686;51.716;7.016;2023-03-13T02:39:16;9.40;91.80
71837;DHT22;59686;51.716;7.016;2023-03-13T02:41:44;9.40;92.00
71837;DHT22;59686;51.716;7.016;2023-03-13T02:44:11;9.40;91.90
71837;DHT22;59686;51.716;7.016;2023-03-13T02:46:52;9.50;92.10
71837;DHT22;59686;51.716;7.016;2023-03-13T02:49:27;9.50;92.10
71837;DHT22;59686;51.716;7.016;2023-03-13T02:51:56;9.50;92.10
71837;DHT22;59686;51.716;7.016;2023-03-13T02:54:27;9.50;92.20
71837;DHT22;59686;51.716;7.016;2023-03-13T02:56:57;9.50;92.40
71837;DHT22;59686;51.716;7.016;2023-03-13T02:59:25;9.50;92.30
71837;DHT22;59686;51.716;7.016;2023-03-13T03:01:51;9.40;92.50
71837;DHT22;59686;51.716;7.016;2023-03-13T03:04:24;9.50;92.40
71837;DHT22;59686;51.716;7.016;2023-03-13T03:06:51;9.50;92.40
71837;DHT22;59686;51.716;7.016;2023-03-13T03:09:19;9.50;92.40
71837;DHT22;59686;51.716;7.016;2023-03-13T03:11:45;9.50;92.40
71837;DHT22;59686;51.716;7.016;2023-03-13T03:14:12;9.40;92.30
71837;DHT22;59686;51.716;7.016;2023-03-13T03:16:38;9.50;92.40
71837;DHT22;59686;51.716;7.016;2023-03-13T03:19:04;9.50;92.40
71837;DHT22;59686;51.716;7.016;2023-03-13T03:21:33;9.50;92.60
71837;DHT22;59686;51.716;7.016;2023-03-13T03:23:59;9.50;92.40
71837;DHT22;59686;51.716;7.016;2023-03-13T03:26:26;9.50;92.60
71837;DHT22;59686;51.716;7.016;2023-03-13T03:28:52;9.50;92.60
71837;DHT22;59686;51.716;7.016;2023-03-13T03:31:18;9.60;92.70
71837;DHT22;59686;51.716;7.016;2023-03-13T03:33:44;9.60;92.60
71837;DHT22;59686;51.716;7.016;2023-03-13T03:36:13;9.60;92.60
71837;DHT22;59686;51.716;7.016;2023-03-13T03:38:39;9.50;92.60
71837;DHT22;59686;51.716;7.016;2023-03-13T03:41:10;9.50;92.60
71837;DHT22;59686;51.716;7.016;2023-03-13T03:43:36;9.50;92.70
71837;DHT22;59686;51.716;7.016;2023-03-13T03:46:02;9.60;92.70
71837;DHT22;59686;51.716;7.016;2023-03-13T03:48:32;9.60;92.70
71837;DHT22;59686;51.716;7.016;2023-03-13T03:50:58;9.70;92.70
71837;DHT22;59686;51.716;7.016;2023-03-13T03:53:24;9.60;92.90
71837;DHT22;59686;51.716;7.016;2023-03-13T03:55:50;9.50;92.80
71837;DHT22;59686;51.716;7.016;2023-03-13T03:58:16;9.60;92.70
71837;DHT22;59686;51.716;7.016;2023-03-13T04:00:45;9.60;92.90
71837;DHT22;59686;51.716;7.016;2023-03-13T04:03:12;9.60;92.80
71837;DHT22;59686;51.716;7.016;2023-03-13T04:05:39;9.60;92.90
71837;DHT22;59686;51.716;7.016;2023-03-13T04:08:05;9.60;92.90
71837;DHT22;59686;51.716;7.016;2023-03-13T04:10:31;9.60;92.80
71837;DHT22;59686;51.716;7.016;2023-03-13T04:12:57;9.70;93.00
71837;DHT22;59686;51.716;7.016;2023-03-13T04:15:23;9.70;93.10
71837;DHT22;59686;51.716;7.016;2023-03-13T04:17:48;9.60;93.10
71837;DHT22;59686;51.716;7.016;2023-03-13T04:20:14;9.60;93.00
71837;DHT22;59686;51.716;7.016;2023-03-13T04:22:40;9.60;93.30
71837;DHT22;59686;51.716;7.016;2023-03-13T04:25:07;9.60;93.20
71837;DHT22;59686;51.716;7.016;2023-03-13T04:27:33;9.70;93.40
71837;DHT22;59686;51.716;7.016;2023-03-13T04:29:59;9.60;93.20
71837;DHT22;59686;51.716;7.016;2023-03-13T04:32:25;9.70;93.20
71837;DHT22;59686;51.716;7.016;2023-03-13T04:34:51;9.70;93.20
71837;DHT22;59686;51.716;7.016;2023-03-13T04:37:17;9.70;93.30
71837;DHT22;59686;51.716;7.016;2023-03-13T04:39:42;9.70;93.20
71837;DHT22;59686;51.716;7.016;2023-03-13T04:42:10;9.70;93.30
71837;DHT22;59686;51.716;7.016;2023-03-13T04:44:36;9.80;93.20
71837;DHT22;59686;51.716;7.016;2023-03-13T04:47:02;9.80;93.20
71837;DHT22;59686;51.716;7.016;2023-03-13T04:49:28;9.80;93.00
71837;DHT22;59686;51.716;7.016;2023-03-13T04:51:54;9.80;93.20
71837;DHT22;59686;51.716;7.016;2023-03-13T04:54:20;9.80;93.20
71837;DHT22;59686;51.716;7.016;2023-03-13T04:56:46;9.80;93.40
71837;DHT22;59686;51.716;7.016;2023-03-13T04:59:12;9.80;93.20
71837;DHT22;59686;51.716;7.016;2023-03-13T05:01:38;9.80;93.00
71837;DHT22;59686;51.716;7.016;2023-03-13T05:04:04;9.90;93.20
71837;DHT22;59686;51.716;7.016;2023-03-13T05:06:30;10.00;93.10
71837;DHT22;59686;51.716;7.016;2023-03-13T05:08:56;9.90;93.30
71837;DHT22;59686;51.716;7.016;2023-03-13T05:11:22;9.90;93.30
71837;DHT22;59686;51.716;7.016;2023-03-13T05:13:48;9.90;93.50
71837;DHT22;59686;51.716;7.016;2023-03-13T05:16:15;9.90;93.50
71837;DHT22;59686;51.716;7.016;2023-03-13T05:18:41;9.90;93.50
71837;DHT22;59686;51.716;7.016;2023-03-13T05:21:07;9.90;93.70
71837;DHT22;59686;51.716;7.016;2023-03-13T05:23:33;9.80;93.60
71837;DHT22;59686;51.716;7.016;2023-03-13T05:25:59;9.90;93.80
71837;DHT22;59686;51.716;7.016;2023-03-13T05:28:25;10.00;93.60
71837;DHT22;59686;51.716;7.016;2023-03-13T05:30:51;10.00;93.70
71837;DHT22;59686;51.716;7.016;2023-03-13T05:33:17;10.00;93.40
71837;DHT22;59686;51.716;7.016;2023-03-13T05:35:45;10.10;93.40
71837;DHT22;59686;51.716;7.016;2023-03-13T05:38:12;9.90;93.60
71837;DHT22;59686;51.716;7.016;2023-03-13T05:40:39;10.00;93.50
71837;DHT22;59686;51.716;7.016;2023-03-13T05:43:05;10.00;93.60
71837;DHT22;59686;51.716;7.016;2023-03-13T05:45:31;10.10;93.50
71837;DHT22;59686;51.716;7.016;2023-03-13T05:47:57;10.10;93.50
71837;DHT22;59686;51.716;7.016;2023-03-13T05:50:28;10.00;93.70
71837;DHT22;59686;51.716;7.016;2023-03-13T05:52:54;10.10;93.80
71837;DHT22;59686;51.716;7.016;2023-03-13T05:55:20;10.00;93.90
71837;DHT22;59686;51.716;7.016;2023-03-13T05:57:46;10.20;94.20
71837;DHT22;59686;51.716;7.016;2023-03-13T06:00:14;10.00;93.90
71837;DHT22;59686;51.716;7.016;2023-03-13T06:02:41;10.10;93.90
71837;DHT22;59686;51.716;7.016;2023-03-13T06:05:07;10.10;94.10
71837;DHT22;59686;51.716;7.016;2023-03-13T06:07:33;10.10;94.10
71837;DHT22;59686;51.716;7.016;2023-03-13T06:09:59;10.10;93.80
71837;DHT22;59686;51.716;7.016;2023-03-13T06:12:25;10.10;93.80
71837;DHT22;59686;51.716;7.016;2023-03-13T06:14:50;10.10;93.90
71837;DHT22;59686;51.716;7.016;2023-03-13T06:17:16;10.10;93.70
71837;DHT22;59686;51.716;7.016;2023-03-13T06:19:42;10.00;93.80
71837;DHT22;59686;51.716;7.016;2023-03-13T06:22:07;10.30;94.00
71837;DHT22;59686;51.716;7.016;2023-03-13T06:24:33;10.10;94.10
71837;DHT22;59686;51.716;7.016;2023-03-13T06:26:59;10.20;93.70
71837;DHT22;59686;51.716;7.016;2023-03-13T06:29:25;10.20;93.70
71837;DHT22;59686;51.716;7.016;2023-03-13T06:31:51;10.20;93.60
71837;DHT22;59686;51.716;7.016;2023-03-13T06:34:16;10.20;93.60
71837;DHT22;59686;51.716;7.016;2023-03-13T06:36:43;10.20;93.70
71837;DHT22;59686;51.716;7.016;2023-03-13T06:39:09;10.20;93.80
71837;DHT22;59686;51.716;7.016;2023-03-13T06:41:35;10.30;93.60
71837;DHT22;59686;51.716;7.016;2023-03-13T06:44:03;10.30;93.40
71837;DHT22;59686;51.716;7.016;2023-03-13T06:46:29;10.30;93.60
71837;DHT22;59686;51.716;7.016;2023-03-13T06:48:56;10.30;93.50
71837;DHT22;59686;51.716;7.016;2023-03-13T06:51:22;10.30;93.50
71837;DHT22;59686;51.716;7.016;2023-03-13T06:53:48;10.30;93.50
71837;DHT22;59686;51.716;7.016;2023-03-13T06:56:13;10.30;93.50
71837;DHT22;59686;51.716;7.016;2023-03-13T06:58:39;10.40;93.40
71837;DHT22;59686;51.716;7.016;2023-03-13T07:01:09;10.40;93.30
71837;DHT22;59686;51.716;7.016;2023-03-13T07:03:39;10.40;93.50
71837;DHT22;59686;51.716;7.016;2023-03-13T07:06:11;10.50;93.50
71837;DHT22;59686;51.716;7.016;2023-03-13T07:08:37;10.50;93.70
71837;DHT22;59686;51.716;7.016;2023-03-13T07:11:06;10.50;93.80
71837;DHT22;59686;51.716;7.016;2023-03-13T07:13:32;10.50;93.60
71837;DHT22;59686;51.716;7.016;2023-03-13T07:16:03;10.50;93.60
71837;DHT22;59686;51.716;7.016;2023-03-13T07:18:29;10.50;93.70
71837;DHT22;59686;51.716;7.016;2023-03-13T07:20:57;10.50;93.60
71837;DHT22;59686;51.716;7.016;2023-03-13T07:23:25;10.60;93.50
71837;DHT22;59686;51.716;7.016;2023-03-13T07:26:04;10.40;93.50
71837;DHT22;59686;51.716;7.016;2023-03-13T07:28:31;10.50;93.60
71837;DHT22;59686;51.716;7.016;2023-03-13T07:33:33;10.50;93.60
71837;DHT22;59686;51.716;7.016;2023-03-13T07:35:59;10.60;93.50
71837;DHT22;59686;51.716;7.016;2023-03-13T07:38:24;10.60;93.40
71837;DHT22;59686;51.716;7.016;2023-03-13T07:40:53;10.50;93.50
71837;DHT22;59686;51.716;7.016;2023-03-13T07:43:20;10.60;93.40
71837;DHT22;59686;51.716;7.016;2023-03-13T07:46:07;10.60;93.60
71837;DHT22;59686;51.716;7.016;2023-03-13T07:48:38;10.60;93.20
71837;DHT22;59686;51.716;7.016;2023-03-13T07:51:06;10.70;93.70
71837;DHT22;59686;51.716;7.016;2023-03-13T07:53:32;10.60;93.60
71837;DHT22;59686;51.716;7.016;2023-03-13T07:55:59;10.70;93.50
71837;DHT22;59686;51.716;7.016;2023-03-13T07:58:31;10.70;93.50
71837;DHT22;59686;51.716;7.016;2023-03-13T08:00:57;10.70;93.40
71837;DHT22;59686;51.716;7.016;2023-03-13T08:03:23;10.70;93.30
71837;DHT22;59686;51.716;7.016;2023-03-13T08:06:06;10.70;93.50
71837;DHT22;59686;51.716;7.016;2023-03-13T08:08:32;10.70;93.20
71837;DHT22;59686;51.716;7.016;2023-03-13T08:11:05;10.70;93.20
71837;DHT22;59686;51.716;7.016;2023-03-13T08:13:32;10.70;93.20
71837;DHT22;59686;51.716;7.016;2023-03-13T08:16:08;10.80;93.20
71837;DHT22;59686;51.716;7.016;2023-03-13T08:18:35;10.90;93.10
71837;DHT22;59686;51.716;7.016;2023-03-13T08:21:07;10.60;93.20
71837;DHT22;59686;51.716;7.016;2023-03-13T08:23:34;10.90;93.40
71837;DHT22;59686;51.716;7.016;2023-03-13T08:26:09;10.80;93.50
71837;DHT22;59686;51.716;7.016;2023-03-13T08:28:36;10.80;93.50
71837;DHT22;59686;51.716;7.016;2023-03-13T08:33:36;10.80;93.70
71837;DHT22;59686;51.716;7.016;2023-03-13T08:36:18;10.80;93.60
71837;DHT22;59686;51.716;7.016;2023-03-13T08:38:44;10.80;93.50
71837;DHT22;59686;51.716;7.016;2023-03-13T08:41:12;10.70;93.40
71837;DHT22;59686;51.716;7.016;2023-03-13T08:43:38;10.80;93.30
71837;DHT22;59686;51.716;7.016;2023-03-13T08:46:04;10.90;93.30
71837;DHT22;59686;51.716;7.016;2023-03-13T08:48:29;10.80;93.40
71837;DHT22;59686;51.716;7.016;2023-03-13T08:51:04;10.90;93.30
71837;DHT22;59686;51.716;7.016;2023-03-13T08:53:31;10.90;93.30
71837;DHT22;59686;51.716;7.016;2023-03-13T08:55:57;10.90;93.30
71837;DHT22;59686;51.716;7.016;2023-03-13T08:58:23;10.90;93.20
71837;DHT22;59686;51.716;7.016;2023-03-13T09:00:49;10.90;93.10
71837;DHT22;59686;51.716;7.016;2023-03-13T09:03:14;10.80;93.20
71837;DHT22;59686;51.716;7.016;2023-03-13T09:05:41;10.90;93.30
71837;DHT22;59686;51.716;7.016;2023-03-13T09:08:07;11.00;93.50
71837;DHT22;59686;51.716;7.016;2023-03-13T09:10:34;11.00;93.60
71837;DHT22;59686;51.716;7.016;2023-03-13T09:13:00;11.10;93.30
71837;DHT22;59686;51.716;7.016;2023-03-13T09:15:26;11.00;93.00
71837;DHT22;59686;51.716;7.016;2023-03-13T09:17:55;11.00;93.20
71837;DHT22;59686;51.716;7.016;2023-03-13T09:20:21;11.20;93.20
71837;DHT22;59686;51.716;7.016;2023-03-13T09:22:46;11.00;93.00
71837;DHT22;59686;51.716;7.016;2023-03-13T09:25:13;11.10;93.20
71837;DHT22;59686;51.716;7.016;2023-03-13T09:27:39;11.20;93.40
71837;DHT22;59686;51.716;7.016;2023-03-13T09:30:06;11.20;93.10
71837;DHT22;59686;51.716;7.016;2023-03-13T09:32:32;11.20;93.30
71837;DHT22;59686;51.716;7.016;2023-03-13T09:34:57;11.20;93.00
71837;DHT22;59686;51.716;7.016;2023-03-13T09:37:24;11.20;93.00
71837;DHT22;59686;51.716;7.016;2023-03-13T09:39:50;11.20;93.20
71837;DHT22;59686;51.716;7.016;2023-03-13T09:42:19;11.20;93.20
71837;DHT22;59686;51.716;7.016;2023-03-13T09:44:51;11.20;93.40
71837;DHT22;59686;51.716;7.016;2023-03-13T09:47:36;11.30;93.70
71837;DHT22;59686;51.716;7.016;2023-03-13T09:50:12;11.30;93.20
71837;DHT22;59686;51.716;7.016;2023-03-13T09:52:40;11.40;93.60
71837;DHT22;59686;51.716;7.016;2023-03-13T09:55:30;11.30;93.60
71837;DHT22;59686;51.716;7.016;2023-03-13T10:00:39;11.30;93.20
71837;DHT22;59686;51.716;7.016;2023-03-13T10:03:26;11.20;93.10
71837;DHT22;59686;51.716;7.016;2023-03-13T10:05:59;11.40;93.60
71837;DHT22;59686;51.716;7.016;2023-03-13T10:08:27;11.20;93.10
71837;DHT22;59686;51.716;7.016;2023-03-13T10:13:43;11.30;93.50
71837;DHT22;59686;51.716;7.016;2023-03-13T10:16:29;11.30;93.10
71837;DHT22;59686;51.716;7.016;2023-03-13T10:18:58;11.30;93.20
71837;DHT22;59686;51.716;7.016;2023-03-13T10:21:30;11.40;93.30
71837;DHT22;59686;51.716;7.016;2023-03-13T10:24:04;11.40;93.10
71837;DHT22;59686;51.716;7.016;2023-03-13T10:26:35;11.40;93.30
71837;DHT22;59686;51.716;7.016;2023-03-13T10:29:22;11.40;93.10
71837;DHT22;59686;51.716;7.016;2023-03-13T10:34:23;11.50;93.00
71837;DHT22;59686;51.716;7.016;2023-03-13T10:36:54;11.50;92.80
71837;DHT22;59686;51.716;7.016;2023-03-13T10:39:23;11.50;93.10
71837;DHT22;59686;51.716;7.016;2023-03-13T10:41:55;11.50;92.90
71837;DHT22;59686;51.716;7.016;2023-03-13T10:44:23;11.60;93.00
71837;DHT22;59686;51.716;7.016;2023-03-13T10:46:58;11.60;93.10
71837;DHT22;59686;51.716;7.016;2023-03-13T10:49:24;11.60;93.10
71837;DHT22;59686;51.716;7.016;2023-03-13T10:51:55;11.60;93.00
71837;DHT22;59686;51.716;7.016;2023-03-13T10:54:40;11.60;92.90
71837;DHT22;59686;51.716;7.016;2023-03-13T10:57:32;11.70;92.80
71837;DHT22;59686;51.716;7.016;2023-03-13T10:59:59;11.60;92.60
71837;DHT22;59686;51.716;7.016;2023-03-13T11:02:37;11.70;92.70
71837;DHT22;59686;51.716;7.016;2023-03-13T11:08:24;11.70;92.60
71837;DHT22;59686;51.716;7.016;2023-03-13T11:10:59;11.70;92.70
71837;DHT22;59686;51.716;7.016;2023-03-13T11:15:59;11.80;92.70
71837;DHT22;59686;51.716;7.016;2023-03-13T11:21:47;11.80;92.60
71837;DHT22;59686;51.716;7.016;2023-03-13T11:33:11;11.90;92.40
71837;DHT22;59686;51.716;7.016;2023-03-13T11:36:06;11.90;92.50
71837;DHT22;59686;51.716;7.016;2023-03-13T11:38:41;11.90;92.30
71837;DHT22;59686;51.716;7.016;2023-03-13T11:41:30;11.90;92.40
71837;DHT22;59686;51.716;7.016;2023-03-13T11:50:10;12.00;92.30
71837;DHT22;59686;51.716;7.016;2023-03-13T12:01:15;12.10;91.90
71837;DHT22;59686;51.716;7.016;2023-03-13T12:06:50;12.00;91.80
71837;DHT22;59686;51.716;7.016;2023-03-13T12:12:03;11.90;92.10
71837;DHT22;59686;51.716;7.016;2023-03-13T12:14:42;12.00;92.20
71837;DHT22;59686;51.716;7.016;2023-03-13T12:17:14;12.00;92.20
71837;DHT22;59686;51.716;7.016;2023-03-13T12:19:54;12.00;92.00
71837;DHT22;59686;51.716;7.016;2023-03-13T12:22:31;12.00;92.00
71837;DHT22;59686;51.716;7.016;2023-03-13T12:25:14;11.90;91.90
71837;DHT22;59686;51.716;7.016;2023-03-13T12:27:48;12.00;91.80
71837;DHT22;59686;51.716;7.016;2023-03-13T12:30:24;12.00;91.80
71837;DHT22;59686;51.716;7.016;2023-03-13T12:35:44;12.10;91.80
71837;DHT22;59686;51.716;7.016;2023-03-13T12:38:36;12.20;91.70
71837;DHT22;59686;51.716;7.016;2023-03-13T12:41:09;12.20;91.60
71837;DHT22;59686;51.716;7.016;2023-03-13T12:43:39;12.20;91.40
71837;DHT22;59686;51.716;7.016;2023-03-13T13:00:25;12.20;91.20
71837;DHT22;59686;51.716;7.016;2023-03-13T13:06:13;12.30;90.90
71837;DHT22;59686;51.716;7.016;2023-03-13T13:08:47;12.30;90.70
71837;DHT22;59686;51.716;7.016;2023-03-13T13:13:58;12.40;90.40
71837;DHT22;59686;51.716;7.016;2023-03-13T13:16:25;12.40;90.20
71837;DHT22;59686;51.716;7.016;2023-03-13T13:18:51;12.50;90.10
71837;DHT22;59686;51.716;7.016;2023-03-13T13:21:21;12.50;90.20
71837;DHT22;59686;51.716;7.016;2023-03-13T13:23:48;12.40;90.30
71837;DHT22;59686;51.716;7.016;2023-03-13T13:39:49;12.60;90.00
71837;DHT22;59686;51.716;7.016;2023-03-13T13:47:46;12.60;90.00
71837;DHT22;59686;51.716;7.016;2023-03-13T13:50:16;12.60;89.80
71837;DHT22;59686;51.716;7.016;2023-03-13T13:52:43;12.70;89.70
71837;DHT22;59686;51.716;7.016;2023-03-13T13:58:29;12.70;89.60
71837;DHT22;59686;51.716;7.016;2023-03-13T14:01:03;12.70;89.90
71837;DHT22;59686;51.716;7.016;2023-03-13T14:03:37;12.60;89.80
71837;DHT22;59686;51.716;7.016;2023-03-13T14:06:23;12.60;90.00
71837;DHT22;59686;51.716;7.016;2023-03-13T14:08:55;12.60;89.80
71837;DHT22;59686;51.716;7.016;2023-03-13T14:11:29;12.60;90.00
71837;DHT22;59686;51.716;7.016;2023-03-13T14:14:13;12.50;89.80
71837;DHT22;59686;51.716;7.016;2023-03-13T14:16:45;12.60;89.60
71837;DHT22;59686;51.716;7.016;2023-03-13T14:19:29;12.60;89.60
71837;DHT22;59686;51.716;7.016;2023-03-13T14:22:06;12.60;89.70
71837;DHT22;59686;51.716;7.016;2023-03-13T14:24:32;12.60;89.60
71837;DHT22;59686;51.716;7.016;2023-03-13T14:26:59;12.70;88.90
71837;DHT22;59686;51.716;7.016;2023-03-13T14:29:24;12.70;89.10
71837;DHT22;59686;51.716;7.016;2023-03-13T14:31:53;12.70;89.10
71837;DHT22;59686;51.716;7.016;2023-03-13T14:34:19;12.70;89.10
71837;DHT22;59686;51.716;7.016;2023-03-13T14:36:49;12.60;89.00
71837;DHT22;59686;51.716;7.016;2023-03-13T14:39:36;12.70;89.20
71837;DHT22;59686;51.716;7.016;2023-03-13T14:42:13;12.70;89.10
71837;DHT22;59686;51.716;7.016;2023-03-13T14:44:39;12.80;89.40
71837;DHT22;59686;51.716;7.016;2023-03-13T14:49:46;12.70;89.30
71837;DHT22;59686;51.716;7.016;2023-03-13T14:52:22;12.70;89.50
71837;DHT22;59686;51.716;7.016;2023-03-13T14:54:52;12.70;89.30
71837;DHT22;59686;51.716;7.016;2023-03-13T14:57:25;12.80;89.00
71837;DHT22;59686;51.716;7.016;2023-03-13T14:59:58;12.80;88.80
71837;DHT22;59686;51.716;7.016;2023-03-13T15:02:40;12.80;89.10
71837;DHT22;59686;51.716;7.016;2023-03-13T15:05:30;12.80;88.90
71837;DHT22;59686;51.716;7.016;2023-03-13T15:07:56;12.90;88.80
71837;DHT22;59686;51.716;7.016;2023-03-13T15:10:25;12.90;89.00
71837;DHT22;59686;51.716;7.016;2023-03-13T15:12:55;12.90;88.60
71837;DHT22;59686;51.716;7.016;2023-03-13T15:15:21;12.90;88.80
71837;DHT22;59686;51.716;7.016;2023-03-13T15:17:46;12.80;88.90
71837;DHT22;59686;51.716;7.016;2023-03-13T15:20:14;12.80;89.00
71837;DHT22;59686;51.716;7.016;2023-03-13T15:22:42;12.80;89.30
71837;DHT22;59686;51.716;7.016;2023-03-13T15:25:22;12.90;89.40
71837;DHT22;59686;51.716;7.016;2023-03-13T15:27:48;12.90;89.50
71837;DHT22;59686;51.716;7.016;2023-03-13T15:30:19;12.90;89.30
71837;DHT22;59686;51.716;7.016;2023-03-13T15:32:47;12.90;89.30
71837;DHT22;59686;51.716;7.016;2023-03-13T15:37:56;12.90;89.30
71837;DHT22;59686;51.716;7.016;2023-03-13T15:40:22;12.90;89.20
71837;DHT22;59686;51.716;7.016;2023-03-13T15:42:49;13.00;88.60
71837;DHT22;59686;51.716;7.016;2023-03-13T15:45:15;13.10;88.90
71837;DHT22;59686;51.716;7.016;2023-03-13T15:47:43;13.00;88.70
71837;DHT22;59686;51.716;7.016;2023-03-13T15:50:15;13.10;88.60
71837;DHT22;59686;51.716;7.016;2023-03-13T15:52:42;13.00;88.40
71837;DHT22;59686;51.716;7.016;2023-03-13T15:55:10;13.10;88.50
71837;DHT22;59686;51.716;7.016;2023-03-13T15:57:38;13.10;88.20
71837;DHT22;59686;51.716;7.016;2023-03-13T16:00:06;13.10;88.30
71837;DHT22;59686;51.716;7.016;2023-03-13T16:02:35;13.10;87.70
71837;DHT22;59686;51.716;7.016;2023-03-13T16:05:03;13.10;88.00
71837;DHT22;59686;51.716;7.016;2023-03-13T16:07:29;13.10;88.10
71837;DHT22;59686;51.716;7.016;2023-03-13T16:09:56;13.10;88.10
71837;DHT22;59686;51.716;7.016;2023-03-13T16:12:21;13.10;88.00
71837;DHT22;59686;51.716;7.016;2023-03-13T16:14:47;13.00;88.20
71837;DHT22;59686;51.716;7.016;2023-03-13T16:17:15;13.10;87.90
71837;DHT22;59686;51.716;7.016;2023-03-13T16:19:42;13.30;87.80
71837;DHT22;59686;51.716;7.016;2023-03-13T16:22:08;13.10;87.70
71837;DHT22;59686;51.716;7.016;2023-03-13T16:24:33;13.20;87.80
71837;DHT22;59686;51.716;7.016;2023-03-13T16:26:59;13.20;87.80
71837;DHT22;59686;51.716;7.016;2023-03-13T16:29:25;13.30;87.30
71837;DHT22;59686;51.716;7.016;2023-03-13T16:31:50;13.30;87.10
71837;DHT22;59686;51.716;7.016;2023-03-13T16:34:16;13.30;87.10
71837;DHT22;59686;51.716;7.016;2023-03-13T16:36:43;13.20;87.20
71837;DHT22;59686;51.716;7.016;2023-03-13T16:39:14;13.20;87.20
71837;DHT22;59686;51.716;7.016;2023-03-13T16:41:42;13.20;87.30
71837;DHT22;59686;51.716;7.016;2023-03-13T16:44:08;13.20;87.50
71837;DHT22;59686;51.716;7.016;2023-03-13T16:46:36;13.20;87.60
71837;DHT22;59686;51.716;7.016;2023-03-13T16:49:12;13.30;87.60
71837;DHT22;59686;51.716;7.016;2023-03-13T16:51:38;13.20;87.00
71837;DHT22;59686;51.716;7.016;2023-03-13T16:54:04;13.30;87.30
71837;DHT22;59686;51.716;7.016;2023-03-13T16:56:39;13.20;87.20
71837;DHT22;59686;51.716;7.016;2023-03-13T16:59:14;13.20;87.30
71837;DHT22;59686;51.716;7.016;2023-03-13T17:01:41;13.20;87.40
71837;DHT22;59686;51.716;7.016;2023-03-13T17:04:07;13.20;87.60
71837;DHT22;59686;51.716;7.016;2023-03-13T17:06:35;13.10;87.60
71837;DHT22;59686;51.716;7.016;2023-03-13T17:09:03;13.10;87.60
71837;DHT22;59686;51.716;7.016;2023-03-13T17:11:32;13.00;87.80
71837;DHT22;59686;51.716;7.016;2023-03-13T17:13:57;13.00;87.90
71837;DHT22;59686;51.716;7.016;2023-03-13T17:16:29;12.90;87.90
71837;DHT22;59686;51.716;7.016;2023-03-13T17:18:57;12.90;88.00
71837;DHT22;59686;51.716;7.016;2023-03-13T17:21:27;12.90;88.10
71837;DHT22;59686;51.716;7.016;2023-03-13T17:23:54;12.90;88.20
71837;DHT22;59686;51.716;7.016;2023-03-13T17:26:22;12.80;88.20
71837;DHT22;59686;51.716;7.016;2023-03-13T17:28:50;12.90;88.40
71837;DHT22;59686;51.716;7.016;2023-03-13T17:31:18;13.00;88.40
71837;DHT22;59686;51.716;7.016;2023-03-13T17:33:44;12.90;88.50
71837;DHT22;59686;51.716;7.016;2023-03-13T17:36:24;12.90;88.40
71837;DHT22;59686;51.716;7.016;2023-03-13T17:38:54;12.70;88.20